Latest Weather Observations for Minlaton Airport

IDS60801

Issued at 11:05 am CST Friday 1 August 2014 (issued every 30 minutes, with the page automatically refreshed every 10 minutes)

About weather observations | Map of weather stations | Latest weather observations for SA | Other Formats
Station Details ID: 022031 Name: MINLATON AERO Lat: -34.75 Lon: 137.53 Height: 32.0 m
Data from the previous 72 hours. | See also: Recent months at Minlaton Airport
Date/Time
CST
Temp
°C
App
Temp
°C
Dew
Point
Rel
Hum
%
Delta-T
°C
Wind Press
QNH
hPa
Press
MSL
hPa
Rain
since 9 am
mm
Dir
 
Spd
km/h
Gust
km/h
Spd
kts
Gust
kts
01/11:00am 11.0 2.8 4.7 65 2.8 SW 37 48 20 26 1020.7 - 0.0
01/10:50am 11.5 3.8 3.3 57 3.6 SW 33 52 18 28 1020.5 - 0.0
01/10:30am 11.7 4.0 5.3 65 2.9 SW 35 48 19 26 1020.3 1020.3 0.0
01/10:00am 10.7 1.7 4.4 65 2.8 SW 41 48 22 26 1019.6 - 0.0
01/09:48am 10.5 3.0 4.4 66 2.7 SW 33 52 18 28 1019.4 - 0.0
01/09:30am 9.8 4.2 5.4 74 2.0 SW 24 35 13 19 1019.0 1019.0 0.0
01/09:00am 8.7 0.8 4.3 74 1.9 SW 35 46 19 25 1018.5 1018.5 6.6
01/08:35am 8.3 0.8 4.3 76 1.8 SSW 33 52 18 28 1017.9 - 6.6
01/08:30am 8.5 0.7 4.7 77 1.7 SSW 35 52 19 28 1017.9 1017.9 6.6
01/08:25am 8.6 1.7 4.8 77 1.7 SSW 30 48 16 26 1017.9 - 6.6
01/08:00am 7.7 2.7 4.7 81 1.3 SW 20 26 11 14 1016.9 - 6.6
01/07:30am 7.8 0.7 3.8 76 1.7 SW 30 39 16 21 1016.5 1016.5 6.6
01/07:00am 8.2 -0.2 3.7 73 1.9 SW 37 46 20 25 1015.8 - 6.6
01/06:41am 8.9 1.0 4.3 73 2.0 SW 35 61 19 33 1015.3 - 6.6
01/06:30am 8.5 0.9 4.1 74 1.9 SW 33 43 18 23 1014.8 1014.8 6.6
01/06:00am 8.6 0.2 3.8 72 2.1 WSW 37 50 20 27 1014.1 1014.1 6.6
01/05:30am 8.7 -0.9 4.5 75 1.9 WSW 44 59 24 32 1013.7 1013.7 6.6
01/05:00am 8.3 -0.3 4.7 78 1.6 SW 39 54 21 29 1013.3 - 6.6
01/04:37am 7.8 0.0 4.9 82 1.3 SW 35 54 19 29 1013.3 - 6.6
01/04:30am 7.9 0.7 4.8 81 1.4 SW 32 44 17 24 1012.8 1012.8 6.2
01/04:00am 6.6 -1.3 4.6 87 0.9 WSW 35 46 19 25 1012.7 - 6.2
01/03:40am 8.0 -0.8 5.5 84 1.1 SW 41 59 22 32 1012.8 - 5.8
01/03:30am 8.4 0.7 5.5 82 1.3 WSW 35 52 19 28 1012.4 1012.4 5.4
01/03:17am 8.5 0.7 5.1 79 1.5 WSW 35 56 19 30 1012.2 - 5.4
01/03:00am 7.9 0.7 5.0 82 1.3 WSW 32 43 17 23 1012.2 1012.2 5.4
01/02:35am 7.6 -3.1 4.6 81 1.3 SW 50 69 27 37 1012.3 - 5.4
01/02:30am 7.9 -3.9 4.8 81 1.4 SW 56 72 30 39 1012.4 1012.4 5.4
01/02:21am 8.1 -3.9 4.9 80 1.4 SW 57 72 31 39 1012.1 - 5.2
01/02:06am 8.1 1.3 5.0 81 1.4 WSW 30 50 16 27 1012.1 - 5.2
01/02:00am 7.6 1.3 5.7 88 0.9 WSW 28 35 15 19 1012.1 - 5.2
01/01:40am 6.9 -2.5 4.6 85 1.0 SW 43 61 23 33 1012.0 - 5.2
01/01:33am 7.7 -3.1 4.1 78 1.6 SW 50 61 27 33 1012.1 - 4.8
01/01:31am 8.8 1.0 4.8 76 1.8 W 35 56 19 30 1012.1 - 4.8
01/01:30am 8.9 1.8 5.5 79 1.5 W 32 46 17 25 1011.9 1011.9 4.8
01/01:00am 7.9 -0.9 3.8 75 1.8 W 39 52 21 28 1011.9 - 4.8
01/12:40am 8.4 0.7 5.5 82 1.3 WSW 35 57 19 31 1011.9 - 4.8
01/12:30am 7.9 0.1 5.0 82 1.3 W 35 46 19 25 1011.8 1011.8 4.6
01/12:16am 8.1 -3.4 4.3 77 1.7 SW 54 72 29 39 1011.9 - 4.4
01/12:14am 8.9 1.8 5.5 79 1.5 W 32 76 17 41 1011.9 - 4.2
01/12:00am 8.7 1.4 5.3 79 1.5 W 33 46 18 25 1011.9 1011.9 4.2
 
Date/Time
CST
Temp
°C
App
Temp
°C
Dew
Point
Rel
Hum
%
Delta-T
°C
Wind Press
QNH
hPa
Press
MSL
hPa
Rain
since 9 am
mm
Dir
 
Spd
km/h
Gust
km/h
Spd
kts
Gust
kts
31/11:30pm 7.8 -0.4 4.7 81 1.4 W 37 57 20 31 1012.3 1012.3 4.2
31/11:04pm 8.3 -1.3 4.3 76 1.8 W 44 63 24 34 1012.0 - 4.0
31/11:00pm 8.7 -1.7 4.3 74 1.9 W 48 63 26 34 1011.9 - 4.0
31/10:30pm 9.0 -0.8 3.6 69 2.3 W 44 63 24 34 1011.6 1011.6 4.0
31/10:15pm 9.6 0.4 3.6 66 2.6 W 41 65 22 35 1011.3 - 4.0
31/10:00pm 9.5 -0.2 2.8 63 2.9 W 43 56 23 30 1011.4 - 3.8
31/09:37pm 9.9 0.4 4.1 67 2.6 W 43 65 23 35 1011.1 - 3.8
31/09:30pm 9.7 0.7 4.3 69 2.4 W 41 56 22 30 1011.2 1011.2 3.8
31/09:00pm 8.4 -1.3 4.0 74 1.9 W 44 63 24 34 1010.9 1010.9 3.8
31/08:59pm 8.3 -1.4 3.9 74 1.9 W 44 63 24 34 1010.9 - 3.8
31/08:52pm 9.4 0.0 4.2 70 2.3 W 43 50 23 27 1011.1 - 3.6
31/08:48pm 9.6 2.9 3.6 66 2.6 WSW 28 48 15 26 1011.0 - 3.6
31/08:30pm 9.3 1.3 3.9 69 2.4 WSW 35 46 19 25 1011.1 1011.1 3.6
31/08:19pm 9.4 0.1 3.2 65 2.7 WSW 41 54 22 29 1010.9 - 3.6
31/08:00pm 8.1 1.4 3.6 73 1.9 WSW 28 35 15 19 1010.9 - 3.6
31/07:49pm 9.4 -0.8 3.4 66 2.6 WSW 46 67 25 36 1010.6 - 3.6
31/07:30pm 9.6 0.4 3.4 65 2.7 WSW 41 54 22 29 1010.6 1010.6 3.6
31/07:14pm 9.3 1.8 4.7 73 2.1 WSW 33 54 18 29 1010.4 - 3.6
31/07:00pm 8.3 1.5 5.1 80 1.4 WSW 30 41 16 22 1010.3 - 3.6
31/06:30pm 7.9 -1.9 5.2 83 1.2 SW 46 56 25 30 1009.8 1009.8 3.6
31/06:24pm 8.1 -5.4 4.7 79 1.5 WSW 65 83 35 45 1009.8 - 3.6
31/06:20pm 8.9 -5.5 4.1 72 2.1 WSW 69 83 37 45 1009.2 - 3.6
31/06:19pm 9.8 -1.0 4.0 67 2.6 W 50 80 27 43 1009.2 - 3.6
31/06:14pm 10.1 1.1 4.3 67 2.6 W 41 61 22 33 1009.2 - 3.6
31/06:00pm 9.8 -0.1 4.6 70 2.3 W 46 61 25 33 1008.9 1008.9 3.6
31/05:31pm 9.1 0.5 4.9 75 1.9 W 39 61 21 33 1008.7 - 3.6
31/05:30pm 9.1 0.7 5.7 79 1.6 W 39 54 21 29 1008.7 1008.7 3.6
31/05:04pm 9.1 -0.2 6.0 81 1.4 SW 44 63 24 34 1008.7 - 3.4
31/05:00pm 9.0 -0.3 6.1 82 1.3 SW 44 61 24 33 1008.6 - 3.4
31/04:43pm 9.8 1.6 6.7 81 1.5 WSW 39 72 21 39 1008.0 - 3.4
31/04:39pm 10.2 2.8 6.7 79 1.6 WSW 35 54 19 29 1007.8 - 3.4
31/04:30pm 10.3 2.3 7.5 83 1.3 SW 39 54 21 29 1007.8 1007.8 3.4
31/04:00pm 10.5 0.7 7.0 79 1.7 WSW 48 63 26 34 1007.3 - 3.4
31/03:30pm 10.9 0.6 8.3 84 1.3 W 52 80 28 43 1006.4 1006.4 3.2
31/03:00pm 11.8 1.0 7.7 76 2.0 W 54 83 29 45 1005.9 1005.9 3.2
31/02:49pm 11.8 4.0 9.7 87 1.1 W 41 63 22 34 1005.8 - 3.2
31/02:30pm 10.8 2.4 9.6 92 0.6 W 44 57 24 31 1006.0 1006.0 3.0
31/02:14pm 12.2 4.1 8.7 79 1.7 W 41 61 22 33 1005.5 - 2.2
31/02:00pm 12.8 5.5 10.3 85 1.3 WNW 39 50 21 27 1005.0 - 2.2
31/01:30pm 12.3 6.3 10.7 90 0.8 W 33 44 18 24 1005.3 1005.3 2.2
31/01:01pm 11.4 4.6 10.5 94 0.5 W 37 56 20 30 1005.6 - 2.0
31/01:00pm 11.6 4.8 10.7 94 0.5 W 37 50 20 27 1005.7 - 2.0
31/12:30pm 11.3 4.8 10.4 94 0.5 WSW 35 46 19 25 1005.4 1005.4 1.4
31/12:00pm 11.8 5.8 10.7 93 0.6 WSW 33 50 18 27 1005.3 1005.3 1.0
31/11:55am 12.1 6.4 11.2 94 0.5 WSW 32 50 17 27 1005.3 - 0.8
31/11:37am 12.3 3.8 10.5 89 0.9 WSW 46 52 25 28 1005.0 - 0.0
31/11:34am 12.9 4.4 10.6 86 1.2 W 46 54 25 29 1004.7 - 0.0
31/11:30am 13.9 6.1 11.1 83 1.5 NW 43 57 23 31 1004.7 1004.7 0.0
31/11:00am 15.0 6.3 11.2 78 2.0 NW 48 61 26 33 1004.5 - 0.0
31/10:30am 14.9 5.8 11.1 78 2.0 NW 50 67 27 36 1004.7 1004.7 0.0
31/10:02am 14.3 5.0 10.7 79 1.9 NNW 50 69 27 37 1004.8 - 0.0
31/10:00am 14.2 5.0 10.8 80 1.8 NNW 50 65 27 35 1004.7 - 0.0
31/09:30am 14.0 6.0 11.0 82 1.6 NNW 44 61 24 33 1005.0 1005.0 0.0
31/09:00am 13.6 5.6 10.6 82 1.6 NNW 43 56 23 30 1005.3 1005.3 0.0
31/08:30am 13.2 5.6 10.4 83 1.5 NNW 41 57 22 31 1005.7 1005.7 0.0
31/08:00am 12.8 5.1 10.2 84 1.3 NNW 41 54 22 29 1005.9 - 0.0
31/07:30am 12.5 5.1 9.9 84 1.3 NNW 39 50 21 27 1005.9 1005.9 0.0
31/07:00am 12.5 5.1 10.0 85 1.3 NNW 39 50 21 27 1005.9 - 0.0
31/06:30am 12.9 5.5 9.9 82 1.5 NW 39 56 21 30 1006.5 1006.5 0.0
31/06:00am 13.2 6.1 9.5 78 1.9 NW 37 50 20 27 1006.7 1006.7 0.0
31/05:30am 13.1 6.9 9.5 79 1.8 NNW 32 44 17 24 1006.8 1006.8 0.0
31/05:00am 12.9 6.0 8.8 76 2.1 NNW 35 46 19 25 1006.9 - 0.0
31/04:30am 12.2 5.8 9.4 83 1.4 NNW 33 43 18 23 1006.9 1006.9 0.0
31/04:00am 12.5 5.3 9.1 80 1.7 NNW 37 46 20 25 1007.1 - 0.0
31/03:30am 12.6 5.8 9.2 80 1.7 NNW 35 44 19 24 1007.5 1007.5 0.0
31/03:00am 12.4 6.9 9.2 81 1.6 NNW 28 37 15 20 1008.0 1008.0 0.0
31/02:30am 12.5 6.2 9.1 80 1.7 NNW 32 39 17 21 1008.6 1008.6 0.0
31/02:00am 12.9 6.5 9.4 79 1.8 NNW 33 43 18 23 1009.0 - 0.0
31/01:30am 12.6 6.2 9.4 81 1.6 NNW 33 43 18 23 1009.5 1009.5 0.0
31/01:00am 12.7 6.5 9.3 80 1.7 NNW 32 43 17 23 1009.9 - 0.0
31/12:30am 12.7 6.5 9.5 81 1.6 NNW 32 41 17 22 1010.5 1010.5 0.0
31/12:00am 12.6 6.8 9.6 82 1.5 NNW 30 37 16 20 1010.9 1010.9 0.0
 
Date/Time
CST
Temp
°C
App
Temp
°C
Dew
Point
Rel
Hum
%
Delta-T
°C
Wind Press
QNH
hPa
Press
MSL
hPa
Rain
since 9 am
mm
Dir
 
Spd
km/h
Gust
km/h
Spd
kts
Gust
kts
30/11:30pm 11.8 7.2 9.5 86 1.2 NNW 24 30 13 16 1011.2 1011.2 0.0
30/11:00pm 12.4 7.5 10.0 85 1.2 NNW 26 32 14 17 1011.5 - 0.0
30/10:30pm 12.9 8.0 10.1 83 1.4 NNW 26 33 14 18 1012.1 1012.1 0.0
30/10:00pm 13.8 7.5 9.6 76 2.2 NW 33 43 18 23 1012.5 - 0.0
30/09:30pm 13.5 8.3 10.3 81 1.7 NW 28 33 15 18 1012.9 1012.9 0.0
30/09:00pm 13.6 8.6 10.9 84 1.4 NNW 28 35 15 19 1013.2 1013.2 0.0
30/08:30pm 13.0 8.7 10.9 87 1.1 NNW 24 30 13 16 1013.7 1013.7 0.0
30/08:00pm 14.1 9.5 11.1 82 1.6 NW 26 33 14 18 1013.9 - 0.0
30/07:30pm 14.0 9.4 11.0 82 1.6 NW 26 32 14 17 1013.9 1013.9 0.0
30/07:00pm 13.8 10.5 11.5 86 1.2 NNW 20 28 11 15 1014.0 - 0.0
30/06:30pm 13.6 9.5 11.5 87 1.1 NNW 24 33 13 18 1014.0 1014.0 0.0
30/06:00pm 13.3 9.7 11.7 90 0.9 NNW 22 28 12 15 1013.8 1013.8 0.0
30/05:30pm 13.3 9.9 11.4 88 1.0 NNW 20 26 11 14 1013.9 1013.9 0.0
30/05:00pm 14.2 10.2 11.7 85 1.3 NNW 24 30 13 16 1014.0 - 0.0
30/04:30pm 14.8 9.8 12.1 84 1.5 NNW 30 35 16 19 1014.1 1014.1 0.0
30/04:00pm 15.0 10.1 12.5 85 1.4 NNW 30 39 16 21 1014.3 - 0.0
30/03:30pm 15.2 10.0 12.7 85 1.4 NNW 32 39 17 21 1014.6 1014.6 0.0
30/03:00pm 15.3 9.1 12.8 85 1.4 NW 37 46 20 25 1014.8 1014.8 0.0
30/02:30pm 15.4 9.3 12.9 85 1.4 NW 37 46 20 25 1015.2 1015.2 0.0
30/02:00pm 15.5 9.8 13.0 85 1.4 NW 35 46 19 25 1015.2 - 0.0
30/01:30pm 15.5 10.7 13.0 85 1.4 NW 30 46 16 25 1015.7 1015.7 0.0
30/01:00pm 15.1 9.7 12.8 86 1.3 NW 33 44 18 24 1016.3 - 0.0
30/12:30pm 15.3 9.6 13.1 87 1.2 NW 35 46 19 25 1016.8 1016.8 0.0
30/12:00pm 15.5 10.5 13.3 87 1.2 NW 32 43 17 23 1017.2 1017.2 0.0
30/11:30am 15.3 10.3 13.3 88 1.1 NW 32 41 17 22 1017.5 1017.5 0.0
30/11:00am 14.6 9.5 13.0 90 0.9 NW 32 44 17 24 1017.9 - 0.0
30/10:30am 14.7 9.3 12.7 88 1.1 NW 33 43 18 23 1018.2 1018.2 0.0
30/10:00am 14.6 9.5 13.1 91 0.8 NW 32 39 17 21 1018.1 - 0.0
30/09:30am 14.3 9.5 12.9 91 0.8 NW 30 39 16 21 1018.3 1018.3 0.0
30/09:00am 13.7 8.4 12.6 93 0.6 NW 32 41 17 22 1018.4 1018.4 2.2
30/08:30am 13.5 8.6 12.6 94 0.5 NW 30 37 16 20 1018.3 1018.3 2.2
30/08:00am 12.8 8.5 12.0 95 0.4 NW 26 32 14 17 1017.9 - 2.2
30/07:30am 12.6 8.6 11.8 95 0.4 NW 24 30 13 16 1018.0 1018.0 2.2
30/07:00am 12.8 9.2 12.0 95 0.4 NNW 22 26 12 14 1018.0 - 2.2
30/06:30am 12.4 8.3 11.6 95 0.4 NNW 24 30 13 16 1017.7 1017.7 2.2
30/06:00am 12.9 8.6 12.1 95 0.4 NW 26 33 14 18 1017.5 1017.5 2.2
30/05:30am 12.8 9.3 12.2 96 0.3 NNW 22 28 12 15 1017.3 1017.3 2.2
30/05:00am 12.2 8.5 11.6 96 0.3 NNW 22 28 12 15 1017.2 - 2.2
30/04:30am 12.4 8.0 11.6 95 0.4 NNW 26 33 14 18 1017.0 1017.0 2.2
30/04:00am 12.4 8.0 11.6 95 0.4 NNW 26 30 14 16 1017.1 - 2.2
30/03:30am 12.6 9.0 11.7 94 0.5 NW 22 28 12 15 1017.5 1017.5 2.2
30/03:00am 13.1 9.3 12.3 95 0.4 NNW 24 30 13 16 1017.8 1017.8 2.2
30/02:30am 12.8 9.6 12.0 95 0.4 NNW 20 26 11 14 1017.9 1017.9 2.2
30/02:00am 12.3 9.0 11.5 95 0.4 NNW 20 26 11 14 1018.1 - 2.2
30/01:30am 12.5 9.2 11.7 95 0.4 NNW 20 28 11 15 1018.3 1018.3 2.2
30/01:00am 13.2 9.4 12.3 94 0.5 NW 24 32 13 17 1018.3 - 2.2
30/12:30am 13.4 9.2 12.3 93 0.6 NW 26 33 14 18 1018.3 1018.3 2.2
30/12:00am 13.3 9.5 12.4 94 0.5 NW 24 32 13 17 1018.5 1018.5 2.2
 
Date/Time
CST
Temp
°C
App
Temp
°C
Dew
Point
Rel
Hum
%
Delta-T
°C
Wind Press
QNH
hPa
Press
MSL
hPa
Rain
since 9 am
mm
Dir
 
Spd
km/h
Gust
km/h
Spd
kts
Gust
kts
29/11:30pm 13.1 9.2 12.0 93 0.6 NW 24 30 13 16 1018.7 1018.8 2.2
29/11:00pm 13.3 9.4 12.2 93 0.6 NW 24 30 13 16 1018.8 - 2.2
29/10:30pm 13.4 9.6 12.5 94 0.5 NW 24 32 13 17 1018.7 1018.8 2.2
29/10:00pm 13.5 9.4 12.6 94 0.5 NW 26 33 14 18 1018.7 - 2.2
29/09:30pm 13.6 9.1 12.7 94 0.5 NW 28 39 15 21 1018.5 1018.5 2.2
29/09:00pm 13.6 8.7 12.7 94 0.5 WNW 30 37 16 20 1018.5 1018.5 2.2
29/08:30pm 13.8 9.6 12.5 92 0.7 WNW 26 33 14 18 1018.4 1018.4 1.6
29/08:00pm 13.8 9.3 12.5 92 0.7 WNW 28 35 15 19 1018.1 - 1.6
29/07:30pm 13.2 8.6 12.3 94 0.5 WNW 28 33 15 18 1017.7 1017.7 1.6
29/07:00pm 13.1 7.6 12.3 95 0.4 W 33 46 18 25 1017.7 - 1.4
29/06:30pm 13.4 6.0 12.3 93 0.6 W 43 56 23 30 1017.5 1017.5 0.6
29/06:00pm 14.2 9.6 12.2 88 1.1 WNW 28 39 15 21 1017.2 1017.2 0.0
29/05:30pm 14.6 9.6 12.3 86 1.3 WNW 30 41 16 22 1016.9 1016.9 0.0
29/05:00pm 14.5 9.9 12.2 86 1.2 NW 28 37 15 20 1016.3 - 0.0
29/04:30pm 14.5 10.7 12.5 88 1.1 NW 24 32 13 17 1016.1 1016.1 0.0
29/04:00pm 14.5 11.2 12.7 89 1.0 NW 22 30 12 16 1016.2 - 0.0
29/03:30pm 14.6 10.2 12.8 89 1.0 NW 28 39 15 21 1016.2 1016.2 0.0
29/03:00pm 14.7 10.7 12.9 89 1.0 NW 26 35 14 19 1016.0 1016.0 0.0
29/02:30pm 15.0 9.8 12.9 87 1.2 NW 32 43 17 23 1015.9 1015.9 0.0
29/02:00pm 15.0 9.8 12.9 87 1.2 NW 32 43 17 23 1015.7 - 0.0
29/01:30pm 14.9 9.4 12.6 86 1.3 NW 33 44 18 24 1016.0 1016.0 0.0
29/01:00pm 15.6 9.9 12.9 84 1.5 NW 35 43 19 23 1015.7 - 0.0
29/12:30pm 15.1 9.6 12.6 85 1.4 NW 33 43 18 23 1016.1 1016.1 0.0
29/12:00pm 15.6 10.4 12.9 84 1.5 NW 32 43 17 23 1016.4 1016.4 0.0
29/11:30am 14.6 9.1 12.6 88 1.1 NW 33 44 18 24 1016.7 1016.7 0.0

Other Formats:

Comma delimited format used in spreadsheet applications
http://www.bom.gov.au/fwo/IDS60801/IDS60801.95659.axf

JavaScript Object Notation format (JSON) in row-major order
http://www.bom.gov.au/fwo/IDS60801/IDS60801.95659.json